createdAt,value
2018-06-25T00:01:28.246Z,70.00
2018-06-25T00:03:55.628Z,70.10
2018-06-25T00:06:23.061Z,70.00
2018-06-25T00:08:50.470Z,70.20
2018-06-25T00:11:17.871Z,70.20
2018-06-25T00:13:45.260Z,70.30
2018-06-25T00:16:12.679Z,70.50
2018-06-25T00:18:40.079Z,70.40
2018-06-25T00:21:07.491Z,70.30
2018-06-25T00:23:34.922Z,70.60
2018-06-25T00:26:02.294Z,70.90
2018-06-25T00:28:29.676Z,70.80
2018-06-25T00:30:57.095Z,70.50
2018-06-25T00:33:24.591Z,70.80
2018-06-25T00:35:51.996Z,70.90
2018-06-25T00:38:19.422Z,70.90
2018-06-25T00:40:46.856Z,71.50
2018-06-25T00:43:14.262Z,71.20
2018-06-25T00:45:41.662Z,71.50
2018-06-25T00:48:09.019Z,72.20
2018-06-25T00:50:36.404Z,71.70
2018-06-25T00:53:03.824Z,71.70
2018-06-25T00:55:31.199Z,71.90
2018-06-25T00:57:58.644Z,72.30
2018-06-25T01:00:26.074Z,72.40
2018-06-25T01:02:53.482Z,72.30
2018-06-25T01:05:20.910Z,72.20
2018-06-25T01:07:48.336Z,72.20
2018-06-25T01:10:15.718Z,72.50
2018-06-25T01:12:43.128Z,72.90
2018-06-25T01:15:10.539Z,73.00
2018-06-25T01:17:37.952Z,72.90
2018-06-25T01:20:05.408Z,73.00
2018-06-25T01:22:32.839Z,72.80
2018-06-25T01:25:00.247Z,73.00
2018-06-25T01:27:27.659Z,72.80
2018-06-25T01:29:55.144Z,72.70
2018-06-25T01:32:22.519Z,72.70
2018-06-25T01:34:49.915Z,72.50
2018-06-25T01:37:17.340Z,72.80
2018-06-25T01:39:44.722Z,72.50
2018-06-25T01:42:12.091Z,72.40
2018-06-25T01:44:39.494Z,72.50
2018-06-25T01:47:06.864Z,72.50
2018-06-25T01:49:34.824Z,72.40
2018-06-25T01:52:02.252Z,72.20
2018-06-25T01:54:29.640Z,72.30
2018-06-25T01:56:57.050Z,72.20
2018-06-25T01:59:24.443Z,72.20
2018-06-25T02:01:51.829Z,72.20
2018-06-25T02:04:19.198Z,72.20
2018-06-25T02:06:46.635Z,72.20
2018-06-25T02:09:14.018Z,71.90
2018-06-25T02:11:41.384Z,71.90
2018-06-25T02:14:08.768Z,71.80
2018-06-25T02:16:36.439Z,71.90
2018-06-25T02:19:04.323Z,71.60
2018-06-25T02:21:36.575Z,71.90
2018-06-25T02:24:07.228Z,71.90
2018-06-25T02:26:42.061Z,71.90
2018-06-25T02:29:11.504Z,71.80
2018-06-25T02:31:39.227Z,72.10
2018-06-25T02:34:06.891Z,72.10
2018-06-25T02:36:35.351Z,72.10
2018-06-25T02:39:15.627Z,72.30
2018-06-25T02:41:43.191Z,72.30
2018-06-25T02:44:53.040Z,72.20
2018-06-25T02:47:20.515Z,72.00
2018-06-25T02:49:47.878Z,72.00
2018-06-25T02:52:15.344Z,72.50
2018-06-25T02:54:42.824Z,72.10
2018-06-25T02:57:10.268Z,72.00
2018-06-25T02:59:37.647Z,72.10
2018-06-25T03:02:05.056Z,71.90
2018-06-25T03:04:32.446Z,72.10
2018-06-25T03:06:59.851Z,72.00
2018-06-25T03:09:27.244Z,72.10
2018-06-25T03:14:22.052Z,72.00
2018-06-25T03:16:49.435Z,72.20
2018-06-25T03:19:16.812Z,72.10
2018-06-25T03:21:44.195Z,71.90
2018-06-25T03:24:11.583Z,72.00
2018-06-25T03:26:38.975Z,71.40
2018-06-25T03:29:06.401Z,71.90
2018-06-25T03:31:33.887Z,71.90
2018-06-25T03:34:01.295Z,71.90
2018-06-25T03:36:28.676Z,71.90
2018-06-25T03:38:56.080Z,71.90
2018-06-25T03:41:23.547Z,71.90
2018-06-25T03:43:50.969Z,71.90
2018-06-25T03:46:18.360Z,72.10
2018-06-25T03:48:45.755Z,71.90
2018-06-25T03:51:13.165Z,71.90
2018-06-25T03:53:40.632Z,72.00
2018-06-25T03:56:08.046Z,72.20
2018-06-25T03:58:35.505Z,72.10
2018-06-25T04:01:02.918Z,72.00
2018-06-25T04:03:30.298Z,72.00
2018-06-25T04:05:57.679Z,72.20
2018-06-25T04:08:25.066Z,72.40
2018-06-25T04:10:52.484Z,72.30
2018-06-25T04:13:19.903Z,72.20
2018-06-25T04:15:47.266Z,72.50
2018-06-25T04:20:42.048Z,72.40
2018-06-25T04:23:09.455Z,72.50
2018-06-25T04:25:36.863Z,73.20
2018-06-25T04:28:04.239Z,72.30
2018-06-25T04:30:31.639Z,72.20
2018-06-25T04:32:59.034Z,72.30
2018-06-25T04:35:26.418Z,72.20
2018-06-25T04:37:53.820Z,72.20
2018-06-25T04:40:21.322Z,71.90
2018-06-25T04:42:48.624Z,71.90
2018-06-25T04:45:15.997Z,72.00
2018-06-25T04:47:43.404Z,72.00
2018-06-25T04:50:10.803Z,72.00
2018-06-25T04:52:38.185Z,71.90
2018-06-25T04:55:05.620Z,71.90
2018-06-25T04:57:33.127Z,71.80
2018-06-25T05:00:00.807Z,72.50
2018-06-25T05:02:28.237Z,71.60
2018-06-25T05:04:55.603Z,71.50
2018-06-25T05:07:22.992Z,71.50
2018-06-25T05:09:50.400Z,71.50
2018-06-25T05:12:17.779Z,71.50
2018-06-25T05:14:45.389Z,71.30
2018-06-25T05:17:12.991Z,71.10
2018-06-25T05:19:40.382Z,70.90
2018-06-25T05:22:07.773Z,70.50
2018-06-25T05:24:35.183Z,70.40
2018-06-25T05:27:02.667Z,70.50
2018-06-25T05:29:30.068Z,70.50
2018-06-25T05:31:57.843Z,70.50
2018-06-25T05:34:25.253Z,70.50
2018-06-25T05:36:52.641Z,70.40
2018-06-25T05:39:20.052Z,70.30
2018-06-25T05:41:47.427Z,70.30
2018-06-25T05:44:14.888Z,70.30
2018-06-25T05:46:42.377Z,69.70
2018-06-25T05:49:09.831Z,69.50
2018-06-25T05:51:37.296Z,69.60
2018-06-25T05:54:04.839Z,69.70
2018-06-25T05:56:32.276Z,69.70
2018-06-25T05:58:59.756Z,69.50
2018-06-25T06:01:27.836Z,69.50
2018-06-25T06:03:55.554Z,69.20
2018-06-25T06:06:23.071Z,68.90
2018-06-25T06:08:50.734Z,68.80
2018-06-25T06:11:18.157Z,68.80
2018-06-25T06:13:45.567Z,68.60
2018-06-25T06:16:13.059Z,68.40
2018-06-25T06:18:40.532Z,68.50
2018-06-25T06:21:07.914Z,68.50
2018-06-25T06:23:35.336Z,68.30
2018-06-25T06:26:02.756Z,68.30
2018-06-25T06:28:30.199Z,67.90
2018-06-25T06:30:57.614Z,67.90
2018-06-25T06:33:25.025Z,67.70
2018-06-25T06:35:52.427Z,67.30
2018-06-25T06:38:19.852Z,67.20
2018-06-25T06:40:47.269Z,67.30
2018-06-25T06:43:14.677Z,67.30
2018-06-25T06:45:42.069Z,67.40
2018-06-25T06:48:09.456Z,67.30
2018-06-25T06:50:36.860Z,67.30
2018-06-25T06:53:04.300Z,67.30
2018-06-25T06:55:31.772Z,67.20
2018-06-25T06:57:59.166Z,67.10
2018-06-25T07:00:26.636Z,67.40
2018-06-25T07:02:54.083Z,67.40
2018-06-25T07:05:21.520Z,68.20
2018-06-25T07:07:48.942Z,67.40
2018-06-25T07:10:16.349Z,67.30
2018-06-25T07:12:43.753Z,67.60
2018-06-25T07:15:11.341Z,67.70
2018-06-25T07:17:39.610Z,67.60
2018-06-25T07:20:07.023Z,67.60
2018-06-25T07:22:34.447Z,68.20
2018-06-25T07:25:01.847Z,67.50
2018-06-25T07:27:29.232Z,67.50
2018-06-25T07:29:56.674Z,66.30
2018-06-25T07:32:24.087Z,65.70
2018-06-25T07:34:51.481Z,65.70
2018-06-25T07:37:18.888Z,66.10
2018-06-25T07:39:46.296Z,65.50
2018-06-25T07:42:13.687Z,65.90
2018-06-25T07:44:41.109Z,65.70
2018-06-25T07:47:08.591Z,66.10
2018-06-25T07:49:35.979Z,65.10
2018-06-25T07:52:03.411Z,63.90
2018-06-25T07:54:30.816Z,64.10
2018-06-25T07:56:58.238Z,63.90
2018-06-25T07:59:25.665Z,63.80
2018-06-25T08:01:53.052Z,63.50
2018-06-25T08:04:20.498Z,63.50
2018-06-25T08:06:47.912Z,63.70
2018-06-25T08:09:15.349Z,63.50
2018-06-25T08:11:42.805Z,63.10
2018-06-25T08:14:10.359Z,62.90
2018-06-25T08:16:38.755Z,63.30
2018-06-25T08:19:06.167Z,63.80
2018-06-25T08:21:33.595Z,62.60
2018-06-25T08:24:01.053Z,62.50
2018-06-25T08:26:28.527Z,61.70
2018-06-25T08:28:58.016Z,60.70
2018-06-25T08:31:25.432Z,60.50
2018-06-25T08:33:52.950Z,61.10
2018-06-25T08:36:20.335Z,60.80
2018-06-25T08:38:47.757Z,60.00
2018-06-25T08:41:15.178Z,60.40
2018-06-25T08:43:42.644Z,60.40
2018-06-25T08:48:37.582Z,60.10
2018-06-25T08:51:05.079Z,59.90
2018-06-25T08:53:32.493Z,59.10
2018-06-25T08:55:59.898Z,59.10
2018-06-25T08:58:27.280Z,58.60
2018-06-25T09:00:54.695Z,58.80
2018-06-25T09:03:22.154Z,58.50
2018-06-25T09:05:49.499Z,58.10
2018-06-25T09:08:16.972Z,57.80
2018-06-25T09:10:44.557Z,57.00
2018-06-25T09:13:11.959Z,57.60
2018-06-25T09:15:39.548Z,58.20
2018-06-25T09:18:06.807Z,57.10
2018-06-25T09:20:34.192Z,56.40
2018-06-25T09:23:01.637Z,56.80
2018-06-25T09:25:29.047Z,56.90
2018-06-25T09:28:01.139Z,57.00
2018-06-25T09:30:28.473Z,57.50
2018-06-25T09:32:55.877Z,58.20
2018-06-25T09:35:23.399Z,58.50
2018-06-25T09:37:50.711Z,58.70
2018-06-25T09:40:18.129Z,58.50
2018-06-25T09:42:45.567Z,57.80
2018-06-25T09:47:40.404Z,57.40
2018-06-25T09:50:07.846Z,57.80
2018-06-25T09:52:35.281Z,57.60
2018-06-25T09:55:02.819Z,57.60
2018-06-25T09:57:30.182Z,57.60
2018-06-25T09:59:57.591Z,57.40
2018-06-25T10:02:24.997Z,57.50
2018-06-25T10:04:52.451Z,57.00
2018-06-25T10:07:19.882Z,57.50
2018-06-25T10:09:47.306Z,58.00
2018-06-25T10:12:14.780Z,58.60
2018-06-25T10:14:42.182Z,58.80
2018-06-25T10:17:09.596Z,59.10
2018-06-25T10:19:37.025Z,59.10
2018-06-25T10:22:04.564Z,59.30
2018-06-25T10:24:31.995Z,59.30
2018-06-25T10:27:00.211Z,58.80
2018-06-25T10:29:27.601Z,57.90
2018-06-25T10:31:55.056Z,57.80
2018-06-25T10:34:22.496Z,57.10
2018-06-25T10:36:49.927Z,57.30
2018-06-25T10:39:17.326Z,57.70
2018-06-25T10:41:44.735Z,58.50
2018-06-25T10:44:12.141Z,59.30
2018-06-25T10:46:39.548Z,57.60
2018-06-25T10:49:06.971Z,56.10
2018-06-25T10:51:34.365Z,55.80
2018-06-25T10:54:01.794Z,55.80
2018-06-25T10:56:29.211Z,56.10
2018-06-25T10:58:56.644Z,56.50
2018-06-25T11:01:24.069Z,55.80
2018-06-25T11:03:51.571Z,55.00
2018-06-25T11:06:19.027Z,55.20
2018-06-25T11:08:46.472Z,54.00
2018-06-25T11:11:13.937Z,53.30
2018-06-25T11:13:41.340Z,53.10
2018-06-25T11:16:08.795Z,52.20
2018-06-25T11:18:36.214Z,52.20
2018-06-25T11:21:03.675Z,51.80
2018-06-25T11:23:31.094Z,52.50
2018-06-25T11:25:58.504Z,52.50
2018-06-25T11:28:25.925Z,52.90
2018-06-25T11:30:53.596Z,51.70
2018-06-25T11:33:21.560Z,50.40
2018-06-25T11:35:49.030Z,49.90
2018-06-25T11:38:16.501Z,50.10
2018-06-25T11:40:43.937Z,50.80
2018-06-25T11:43:11.339Z,50.00
2018-06-25T11:45:38.768Z,49.50
2018-06-25T11:48:06.179Z,49.20
2018-06-25T11:50:33.581Z,49.60
2018-06-25T11:53:00.999Z,48.60
2018-06-25T11:55:28.426Z,50.10
2018-06-25T11:57:55.879Z,50.40
2018-06-25T12:00:23.322Z,50.30
2018-06-25T12:02:50.856Z,48.70
2018-06-25T12:05:18.224Z,47.50
2018-06-25T12:07:45.635Z,48.20
2018-06-25T12:10:13.062Z,47.90
2018-06-25T12:12:40.942Z,48.00
2018-06-25T12:15:08.367Z,48.60
2018-06-25T12:17:35.948Z,48.60
2018-06-25T12:20:03.424Z,47.70
2018-06-25T12:22:30.992Z,48.20
2018-06-25T12:24:58.400Z,47.70
2018-06-25T12:27:25.867Z,46.40
2018-06-25T12:32:21.038Z,47.70
2018-06-25T12:34:48.998Z,47.10
2018-06-25T12:37:16.414Z,47.10
2018-06-25T12:39:43.927Z,44.30
2018-06-25T12:42:11.735Z,45.30
2018-06-25T12:44:39.149Z,46.00
2018-06-25T12:47:06.633Z,46.00
2018-06-25T12:49:34.042Z,45.70
2018-06-25T12:52:01.927Z,46.00
2018-06-25T12:54:29.340Z,44.90
2018-06-25T12:56:56.781Z,42.80
2018-06-25T12:59:24.259Z,44.00
2018-06-25T13:01:51.656Z,44.00
2018-06-25T13:04:19.112Z,45.00
2018-06-25T13:06:46.571Z,43.90
2018-06-25T13:09:14.232Z,43.40
2018-06-25T13:11:41.652Z,42.60
2018-06-25T13:14:09.242Z,43.70
2018-06-25T13:16:36.704Z,43.90
2018-06-25T13:19:04.469Z,44.30
2018-06-25T13:21:31.888Z,44.30
2018-06-25T13:23:59.335Z,44.00
2018-06-25T13:26:26.799Z,43.80
2018-06-25T13:28:54.211Z,42.80
2018-06-25T13:31:21.704Z,42.30
2018-06-25T13:33:49.071Z,43.30
2018-06-25T13:36:16.975Z,41.70
2018-06-25T13:38:44.387Z,43.10
2018-06-25T13:41:11.784Z,43.70
2018-06-25T13:43:39.194Z,43.30
2018-06-25T13:46:06.883Z,43.00
2018-06-25T13:48:34.355Z,42.20
2018-06-25T13:51:01.759Z,41.70
2018-06-25T13:53:31.793Z,41.20
2018-06-25T13:55:59.207Z,40.70
2018-06-25T13:58:26.852Z,40.60
2018-06-25T14:00:54.257Z,39.60
2018-06-25T14:03:21.740Z,39.10
2018-06-25T14:05:49.312Z,39.80
2018-06-25T14:08:16.700Z,40.90
2018-06-25T14:10:44.130Z,42.20
2018-06-25T14:13:11.563Z,42.20
2018-06-25T14:15:39.025Z,42.20
2018-06-25T14:18:06.800Z,42.10
2018-06-25T14:20:34.917Z,38.80
2018-06-25T14:23:03.456Z,38.20
2018-06-25T14:25:35.568Z,39.20
2018-06-25T14:28:08.918Z,39.30
2018-06-25T14:30:42.166Z,38.70
2018-06-25T14:33:09.570Z,38.30
2018-06-25T14:35:37.173Z,38.90
2018-06-25T14:38:04.679Z,38.30
2018-06-25T14:40:32.174Z,37.60
2018-06-25T14:42:59.558Z,37.30
2018-06-25T14:45:27.055Z,38.80
2018-06-25T14:47:54.460Z,40.00
2018-06-25T14:50:21.899Z,37.70
2018-06-25T14:52:49.304Z,38.50
2018-06-25T14:55:16.739Z,40.00
2018-06-25T14:57:44.797Z,40.20
2018-06-25T15:00:16.854Z,38.50
2018-06-25T15:02:44.306Z,37.50
2018-06-25T15:05:11.704Z,36.30
2018-06-25T15:07:39.168Z,37.60
2018-06-25T15:10:06.565Z,38.10
2018-06-25T15:12:33.955Z,38.30
2018-06-25T15:15:01.361Z,37.80
2018-06-25T15:17:28.791Z,38.40
2018-06-25T15:19:56.266Z,38.40
2018-06-25T15:22:23.658Z,38.20
2018-06-25T15:24:51.054Z,38.60
2018-06-25T15:27:18.493Z,38.90
2018-06-25T15:29:45.959Z,39.60
2018-06-25T15:32:13.368Z,39.30
2018-06-25T15:34:40.772Z,39.70
2018-06-25T15:37:08.155Z,39.70
2018-06-25T15:39:35.599Z,39.30
2018-06-25T15:42:03.051Z,39.40
2018-06-25T15:44:30.463Z,40.00
2018-06-25T15:46:57.888Z,40.00
2018-06-25T15:49:25.345Z,40.40
2018-06-25T15:51:52.775Z,39.70
2018-06-25T15:54:20.219Z,39.70
2018-06-25T15:56:47.652Z,39.10
2018-06-25T15:59:15.075Z,39.50
2018-06-25T16:01:42.472Z,39.50
2018-06-25T16:04:09.885Z,38.80
2018-06-25T16:06:37.311Z,38.70
2018-06-25T16:09:05.654Z,39.00
2018-06-25T16:11:33.099Z,38.20
2018-06-25T16:14:00.612Z,39.20
2018-06-25T16:16:28.117Z,39.30
2018-06-25T16:18:55.633Z,38.90
2018-06-25T16:21:23.236Z,38.70
2018-06-25T16:23:50.896Z,38.60
2018-06-25T16:26:18.407Z,38.40
2018-06-25T16:28:45.926Z,38.10
2018-06-25T16:31:13.365Z,38.00
2018-06-25T16:33:41.089Z,38.30
2018-06-25T16:36:08.685Z,38.10
2018-06-25T16:38:36.108Z,38.40
2018-06-25T16:41:03.631Z,38.60
2018-06-25T16:43:31.109Z,38.80
2018-06-25T16:45:58.795Z,38.00
2018-06-25T16:48:26.273Z,37.70
2018-06-25T16:50:53.729Z,38.20
2018-06-25T16:53:21.208Z,38.60
2018-06-25T16:55:48.667Z,39.30
2018-06-25T16:58:16.301Z,39.50
2018-06-25T17:00:43.803Z,39.00
2018-06-25T17:03:11.242Z,39.60
2018-06-25T17:08:06.106Z,38.80
2018-06-25T17:10:33.520Z,39.10
2018-06-25T17:13:00.961Z,39.40
2018-06-25T17:15:28.444Z,39.20
2018-06-25T17:17:55.883Z,38.70
2018-06-25T17:20:23.340Z,38.70
2018-06-25T17:22:50.817Z,38.40
2018-06-25T17:25:18.307Z,38.60
2018-06-25T17:27:45.764Z,37.30
2018-06-25T17:30:13.291Z,37.50
2018-06-25T17:32:40.750Z,37.10
2018-06-25T17:35:08.544Z,37.20
2018-06-25T17:37:36.104Z,37.10
2018-06-25T17:40:04.227Z,37.40
2018-06-25T17:42:31.706Z,36.90
2018-06-25T17:44:59.201Z,36.80
2018-06-25T17:47:26.615Z,36.80
2018-06-25T17:49:53.991Z,37.30
2018-06-25T17:52:21.416Z,37.10
2018-06-25T17:54:48.831Z,37.70
2018-06-25T17:57:16.258Z,37.30
2018-06-25T17:59:43.683Z,37.00
2018-06-25T18:02:11.123Z,37.10
2018-06-25T18:04:38.548Z,37.30
2018-06-25T18:07:05.975Z,37.10
2018-06-25T18:09:33.375Z,37.30
2018-06-25T18:12:00.799Z,37.10
2018-06-25T18:14:28.227Z,37.00
2018-06-25T18:16:55.650Z,37.10
2018-06-25T18:19:23.085Z,36.80
2018-06-25T18:21:50.470Z,37.00
2018-06-25T18:24:17.863Z,37.30
2018-06-25T18:26:45.283Z,37.50
2018-06-25T18:29:12.663Z,37.70
2018-06-25T18:31:40.085Z,37.70
2018-06-25T18:34:07.551Z,38.00
2018-06-25T18:36:34.984Z,38.40
2018-06-25T18:39:02.503Z,38.50
2018-06-25T18:41:29.957Z,39.10
2018-06-25T18:43:57.384Z,39.30
2018-06-25T18:46:24.798Z,39.60
2018-06-25T18:48:52.214Z,39.70
2018-06-25T18:51:19.601Z,39.80
2018-06-25T18:53:47.044Z,39.50
2018-06-25T18:56:14.495Z,39.10
2018-06-25T18:58:41.901Z,39.30
2018-06-25T19:01:09.352Z,39.50
2018-06-25T19:03:36.799Z,39.70
2018-06-25T19:06:04.300Z,39.80
2018-06-25T19:08:31.772Z,39.80
2018-06-25T19:10:59.199Z,40.00
2018-06-25T19:13:26.637Z,40.20
2018-06-25T19:15:54.040Z,40.10
2018-06-25T19:18:22.648Z,40.10
2018-06-25T19:20:50.043Z,40.10
2018-06-25T19:23:17.475Z,40.40
2018-06-25T19:25:44.907Z,40.60
2018-06-25T19:28:12.346Z,40.60
2018-06-25T19:30:39.800Z,41.10
2018-06-25T19:33:07.250Z,41.20
2018-06-25T19:35:34.624Z,41.80
2018-06-25T19:38:02.075Z,42.30
2018-06-25T19:40:29.587Z,42.80
2018-06-25T19:42:57.058Z,43.40
2018-06-25T19:47:51.944Z,44.50
2018-06-25T19:50:19.374Z,45.00
2018-06-25T19:52:46.796Z,45.20
2018-06-25T19:55:14.305Z,46.20
2018-06-25T19:57:41.754Z,46.80
2018-06-25T20:00:09.234Z,47.10
2018-06-25T20:02:36.705Z,47.60
2018-06-25T20:05:04.465Z,48.00
2018-06-25T20:07:31.863Z,48.10
2018-06-25T20:09:59.296Z,48.70
2018-06-25T20:12:26.773Z,49.20
2018-06-25T20:14:54.231Z,49.60
2018-06-25T20:17:21.708Z,49.80
2018-06-25T20:19:49.232Z,51.30
2018-06-25T20:22:16.737Z,51.00
2018-06-25T20:24:44.169Z,51.30
2018-06-25T20:27:12.002Z,51.60
2018-06-25T20:29:39.416Z,52.30
2018-06-25T20:32:07.402Z,52.80
2018-06-25T20:34:35.106Z,53.20
2018-06-25T20:37:02.609Z,53.40
2018-06-25T20:39:30.132Z,53.50
2018-06-25T20:41:57.815Z,53.10
2018-06-25T20:44:25.271Z,53.20
2018-06-25T20:46:53.395Z,53.40
2018-06-25T20:49:20.801Z,53.30
2018-06-25T20:51:48.247Z,53.60
2018-06-25T20:54:16.645Z,53.90
2018-06-25T20:56:44.146Z,54.10
2018-06-25T20:59:11.515Z,54.80
2018-06-25T21:01:38.952Z,54.30
2018-06-25T21:04:07.389Z,54.10
2018-06-25T21:06:34.990Z,54.30
2018-06-25T21:09:03.726Z,54.50
2018-06-25T21:11:31.787Z,54.60
2018-06-25T21:14:00.698Z,54.90
2018-06-25T21:16:28.333Z,55.50
2018-06-25T21:18:55.801Z,55.30
2018-06-25T21:21:23.319Z,55.60
2018-06-25T21:23:50.796Z,55.90
2018-06-25T21:26:18.246Z,55.60
2018-06-25T21:28:45.788Z,56.40
2018-06-25T21:33:40.635Z,56.70
2018-06-25T21:36:08.183Z,57.90
2018-06-25T21:38:35.901Z,57.20
2018-06-25T21:41:03.320Z,57.00
2018-06-25T21:43:31.095Z,57.30
2018-06-25T21:45:58.589Z,57.80
2018-06-25T21:48:27.085Z,57.80
2018-06-25T21:50:54.782Z,58.20
2018-06-25T21:53:22.274Z,57.90
2018-06-25T21:55:49.693Z,57.90
2018-06-25T21:58:17.177Z,57.70
2018-06-25T22:00:47.222Z,58.30
2018-06-25T22:03:15.791Z,58.40
2018-06-25T22:05:43.381Z,58.30
2018-06-25T22:08:11.344Z,58.50
2018-06-25T22:10:38.982Z,58.90
2018-06-25T22:13:06.650Z,59.40
2018-06-25T22:18:02.272Z,60.00
2018-06-25T22:20:29.718Z,60.60
2018-06-25T22:22:57.152Z,60.80
2018-06-25T22:25:24.919Z,60.80
2018-06-25T22:27:52.347Z,61.20
2018-06-25T22:30:19.765Z,62.20
2018-06-25T22:32:47.192Z,62.30
2018-06-25T22:35:14.627Z,62.50
2018-06-25T22:37:42.067Z,62.20
2018-06-25T22:40:09.786Z,62.50
2018-06-25T22:42:39.839Z,62.90
2018-06-25T22:45:22.407Z,62.40
2018-06-25T22:47:49.862Z,62.70
2018-06-25T22:50:17.263Z,62.80
2018-06-25T22:52:44.987Z,62.90
2018-06-25T22:55:12.414Z,62.60
2018-06-25T22:57:39.835Z,64.00
2018-06-25T23:00:07.300Z,63.60
2018-06-25T23:02:34.701Z,63.60
2018-06-25T23:05:02.219Z,64.30
2018-06-25T23:07:29.678Z,63.70
2018-06-25T23:09:57.084Z,63.80
2018-06-25T23:12:24.653Z,63.80
2018-06-25T23:14:52.053Z,63.70
2018-06-25T23:17:19.544Z,63.60
2018-06-25T23:19:46.945Z,63.30
2018-06-25T23:22:14.371Z,63.00
2018-06-25T23:24:41.791Z,62.90
2018-06-25T23:27:09.268Z,63.10
2018-06-25T23:29:36.679Z,62.90
2018-06-25T23:32:04.087Z,63.00
2018-06-25T23:34:31.503Z,63.10
2018-06-25T23:36:58.948Z,63.50
2018-06-25T23:39:26.341Z,63.40
2018-06-25T23:41:53.804Z,63.50
2018-06-25T23:44:21.248Z,63.10
2018-06-25T23:46:48.808Z,63.10
2018-06-25T23:49:16.260Z,63.10
2018-06-25T23:51:43.805Z,63.10
2018-06-25T23:54:11.251Z,63.30
2018-06-25T23:56:38.731Z,64.00
2018-06-25T23:59:06.174Z,63.90
